DIINO EDDM-LIPX
Flight info
| Callsign | DIINO |
|---|---|
| Flight time | N/A |
| Altitude | 33000 |
| Route | TURBU7Q TURBU Y107 TOBSO DCT BAKOR DCT NAXAV DCT OZE T897 ANJAT |
| Aircraft | P180/L-SBDFGM3RWXY/LB1 |
Departure
| Time | 2026-05-06 12:01 |
|---|---|
| Airport | Munich Airport (EDDM) |
Arrival
| Time | N/A |
|---|---|
| Airport | Verona Villafranca Valerio Catullo Airport (LIPX) |
| Time | Latitude | Longitude | Altitude | Speed | Heading |
|---|---|---|---|---|---|
| 2026-05-06 11:38 | 48.35333 | 11.80399 | 1468 ft | 0 kts | 84° |
| 2026-05-06 11:51 | 48.35333 | 11.80404 | 1461 ft | 1 kts | 84° |
| 2026-05-06 11:51 | 48.35338 | 11.80429 | 1461 ft | 4 kts | 43° |
| 2026-05-06 11:51 | 48.35375 | 11.80425 | 1457 ft | 7 kts | 351° |
| 2026-05-06 11:51 | 48.35423 | 11.80391 | 1461 ft | 10 kts | 279° |
| 2026-05-06 11:52 | 48.35422 | 11.80363 | 1461 ft | 0 kts | 263° |
| 2026-05-06 11:52 | 48.35421 | 11.80356 | 1461 ft | 2 kts | 263° |
| 2026-05-06 11:52 | 48.35418 | 11.80317 | 1461 ft | 5 kts | 263° |
| 2026-05-06 11:53 | 48.35413 | 11.80251 | 1459 ft | 7 kts | 263° |
| 2026-05-06 11:53 | 48.35401 | 11.80169 | 1457 ft | 9 kts | 231° |
| 2026-05-06 11:53 | 48.35337 | 11.80168 | 1458 ft | 10 kts | 174° |
| 2026-05-06 11:53 | 48.35261 | 11.80179 | 1461 ft | 12 kts | 174° |
| 2026-05-06 11:54 | 48.35174 | 11.80192 | 1459 ft | 13 kts | 174° |
| 2026-05-06 11:54 | 48.35128 | 11.80104 | 1461 ft | 12 kts | 262° |
| 2026-05-06 11:54 | 48.35117 | 11.79967 | 1461 ft | 14 kts | 263° |
| 2026-05-06 11:54 | 48.35104 | 11.79813 | 1461 ft | 16 kts | 261° |
| 2026-05-06 11:55 | 48.35052 | 11.79664 | 1461 ft | 17 kts | 232° |
| 2026-05-06 11:55 | 48.34960 | 11.79553 | 1461 ft | 14 kts | 201° |
| 2026-05-06 11:55 | 48.34879 | 11.79554 | 1461 ft | 12 kts | 174° |
| 2026-05-06 11:55 | 48.34795 | 11.79526 | 1458 ft | 14 kts | 235° |
| 2026-05-06 11:56 | 48.34775 | 11.79375 | 1461 ft | 15 kts | 263° |
| 2026-05-06 11:56 | 48.34763 | 11.79211 | 1461 ft | 16 kts | 264° |
| 2026-05-06 11:56 | 48.34750 | 11.79032 | 1461 ft | 18 kts | 263° |
| 2026-05-06 11:56 | 48.34734 | 11.78841 | 1461 ft | 19 kts | 263° |
| 2026-05-06 11:57 | 48.34718 | 11.78637 | 1461 ft | 20 kts | 263° |
| 2026-05-06 11:57 | 48.34700 | 11.78421 | 1461 ft | 21 kts | 263° |
| 2026-05-06 11:57 | 48.34682 | 11.78195 | 1461 ft | 22 kts | 264° |
| 2026-05-06 11:57 | 48.34667 | 11.77959 | 1460 ft | 23 kts | 264° |
| 2026-05-06 11:58 | 48.34650 | 11.77715 | 1461 ft | 24 kts | 262° |
| 2026-05-06 11:58 | 48.34628 | 11.77465 | 1460 ft | 24 kts | 263° |
| 2026-05-06 11:58 | 48.34607 | 11.77208 | 1460 ft | 25 kts | 263° |
| 2026-05-06 11:58 | 48.34586 | 11.76946 | 1460 ft | 25 kts | 263° |
| 2026-05-06 11:59 | 48.34566 | 11.76680 | 1460 ft | 26 kts | 264° |
| 2026-05-06 11:59 | 48.34546 | 11.76409 | 1460 ft | 26 kts | 264° |
| 2026-05-06 11:59 | 48.34526 | 11.76136 | 1460 ft | 26 kts | 264° |
| 2026-05-06 11:59 | 48.34509 | 11.75900 | 1460 ft | 20 kts | 264° |
| 2026-05-06 12:00 | 48.34459 | 11.75779 | 1460 ft | 15 kts | 184° |
| 2026-05-06 12:00 | 48.34371 | 11.75841 | 1462 ft | 14 kts | 125° |
| 2026-05-06 12:00 | 48.34313 | 11.76026 | 1461 ft | 27 kts | 114° |
| 2026-05-06 12:00 | 48.34220 | 11.76361 | 1460 ft | 47 kts | 105° |
| 2026-05-06 12:01 | 48.34228 | 11.77074 | 1464 ft | 98 kts | 84° |
| 2026-05-06 12:01 | 48.34329 | 11.78327 | 1490 ft | 138 kts | 81° |
| 2026-05-06 12:01 | 48.34436 | 11.79850 | 1729 ft | 152 kts | 81° |
| 2026-05-06 12:01 | 48.34577 | 11.81455 | 2108 ft | 159 kts | 81° |
| 2026-05-06 12:02 | 48.34766 | 11.83151 | 2463 ft | 177 kts | 80° |
| 2026-05-06 12:02 | 48.34883 | 11.85020 | 3133 ft | 181 kts | 88° |
| 2026-05-06 12:02 | 48.34947 | 11.86904 | 3927 ft | 181 kts | 86° |
| 2026-05-06 12:02 | 48.35083 | 11.88820 | 4650 ft | 186 kts | 84° |
| 2026-05-06 12:03 | 48.35243 | 11.90773 | 5403 ft | 190 kts | 86° |
| 2026-05-06 12:03 | 48.35397 | 11.92777 | 6082 ft | 196 kts | 86° |
| 2026-05-06 12:03 | 48.35388 | 11.94833 | 6649 ft | 202 kts | 109° |
| 2026-05-06 12:03 | 48.34619 | 11.96690 | 6781 ft | 223 kts | 139° |
| 2026-05-06 12:04 | 48.33340 | 11.98204 | 6797 ft | 244 kts | 145° |
| 2026-05-06 12:04 | 48.32417 | 11.99229 | 6787 ft | 254 kts | 145° |
| 2026-05-06 12:04 | 48.30986 | 12.00874 | 6792 ft | 264 kts | 144° |
| 2026-05-06 12:04 | 48.29440 | 12.02324 | 7127 ft | 254 kts | 162° |
| 2026-05-06 12:05 | 48.27800 | 12.02673 | 8078 ft | 225 kts | 182° |
| 2026-05-06 12:05 | 48.26333 | 12.02583 | 9163 ft | 198 kts | 184° |
| 2026-05-06 12:05 | 48.24992 | 12.02517 | 9943 ft | 192 kts | 184° |
| 2026-05-06 12:05 | 48.23650 | 12.02444 | 10467 ft | 193 kts | 185° |
| 2026-05-06 12:06 | 48.22304 | 12.02365 | 11026 ft | 194 kts | 186° |
| 2026-05-06 12:06 | 48.20958 | 12.02285 | 11553 ft | 194 kts | 186° |
| 2026-05-06 12:06 | 48.19611 | 12.02206 | 12058 ft | 194 kts | 186° |
| 2026-05-06 12:06 | 48.18257 | 12.02128 | 12561 ft | 195 kts | 187° |
| 2026-05-06 12:07 | 48.16904 | 12.02049 | 13035 ft | 195 kts | 187° |
| 2026-05-06 12:07 | 48.15543 | 12.01969 | 13519 ft | 196 kts | 187° |
| 2026-05-06 12:07 | 48.14642 | 12.01917 | 13799 ft | 196 kts | 187° |
| 2026-05-06 12:07 | 48.13504 | 12.01849 | 14142 ft | 197 kts | 187° |
| 2026-05-06 12:08 | 48.12134 | 12.01770 | 14529 ft | 198 kts | 187° |
| 2026-05-06 12:08 | 48.10756 | 12.01690 | 14925 ft | 198 kts | 187° |
| 2026-05-06 12:08 | 48.09379 | 12.01610 | 15304 ft | 198 kts | 187° |
| 2026-05-06 12:08 | 48.07997 | 12.01530 | 15663 ft | 199 kts | 186° |
| 2026-05-06 12:09 | 48.06630 | 12.01296 | 16017 ft | 197 kts | 198° |